Time;durP1;ratioP1;P1;durP2;ratioP2;P2;SDS_P1;SDS_P2;PMS_P1;PMS_P2;Temp;Humidity;BMP_temperature;BMP_pressure;BME280_temperature;BME280_humidity;BME280_pressure;Samples;Min_cycle;Max_cycle;Signal;HPM_P1;HPM_P2
2022/06/06 00:01:50;;;;;;;4.47;4.07;;;16.00;99.90;;;;;;5094770;28;20600;-76
2022/06/06 00:04:18;;;;;;;3.70;3.33;;;16.00;99.90;;;;;;5088163;28;20175;-74
2022/06/06 00:06:44;;;;;;;4.80;3.70;;;15.90;99.90;;;;;;5088293;28;20198;-74
2022/06/06 00:09:12;;;;;;;4.63;4.15;;;15.90;99.90;;;;;;5093136;28;20185;-75
2022/06/06 00:11:38;;;;;;;3.75;3.42;;;15.90;99.90;;;;;;5079854;28;20215;-75
2022/06/06 00:14:05;;;;;;;4.47;3.88;;;15.80;99.90;;;;;;5086810;28;20221;-74
2022/06/06 00:16:31;;;;;;;3.65;3.35;;;15.70;99.90;;;;;;5085003;28;20580;-75
2022/06/06 00:18:56;;;;;;;4.05;3.75;;;15.70;99.90;;;;;;5090528;28;20520;-75
2022/06/06 00:21:23;;;;;;;4.18;3.83;;;15.70;99.90;;;;;;5095424;28;20199;-76
2022/06/06 00:23:49;;;;;;;4.00;3.70;;;15.70;99.90;;;;;;5089235;28;20186;-76
2022/06/06 00:26:16;;;;;;;5.38;3.67;;;15.70;99.90;;;;;;5083905;28;20315;-76
2022/06/06 00:28:44;;;;;;;3.80;3.40;;;15.60;99.90;;;;;;5082524;28;20273;-76
2022/06/06 00:36:41;;;;;;;3.17;2.88;;;15.50;99.90;;;;;;5087758;28;20212;-75
2022/06/06 00:39:09;;;;;;;3.95;3.65;;;15.50;99.90;;;;;;5083975;28;20190;-76
2022/06/06 00:41:46;;;;;;;3.42;3.13;;;15.40;99.90;;;;;;5092016;28;20248;-75
2022/06/06 00:44:15;;;;;;;2.95;2.75;;;15.40;99.90;;;;;;5091545;28;20183;-74
2022/06/06 00:46:46;;;;;;;3.33;3.13;;;15.30;99.90;;;;;;5087567;28;20673;-74
2022/06/06 00:49:24;;;;;;;3.67;3.33;;;15.30;99.90;;;;;;5088274;28;20663;-73
2022/06/06 00:51:51;;;;;;;4.68;2.80;;;15.30;99.90;;;;;;5084156;28;20203;-74
2022/06/06 00:54:17;;;;;;;3.08;2.88;;;15.20;99.90;;;;;;5085043;28;20170;-75
2022/06/06 00:56:49;;;;;;;3.08;2.88;;;15.20;99.90;;;;;;5082502;28;20209;-74
2022/06/06 00:59:19;;;;;;;3.40;3.08;;;15.20;99.90;;;;;;5096874;28;20576;-75
2022/06/06 01:01:48;;;;;;;3.38;2.58;;;15.20;99.90;;;;;;5089045;28;20203;-75
2022/06/06 01:04:16;;;;;;;3.40;2.95;;;15.10;99.90;;;;;;5085064;28;20168;-76
2022/06/06 01:06:45;;;;;;;3.10;2.90;;;15.10;99.90;;;;;;5080407;28;20198;-75
2022/06/06 01:09:14;;;;;;;2.95;2.75;;;15.10;99.90;;;;;;5091987;28;20181;-76
2022/06/06 01:11:43;;;;;;;3.33;2.58;;;15.00;99.90;;;;;;5084534;28;20198;-75
2022/06/06 01:14:12;;;;;;;3.88;3.25;;;15.00;99.90;;;;;;5081714;28;20174;-74
2022/06/06 01:16:53;;;;;;;5.60;3.10;;;14.90;99.90;;;;;;5078088;28;20187;-75
2022/06/06 01:19:30;;;;;;;2.97;2.78;;;14.90;99.90;;;;;;5092250;28;20707;-75
2022/06/06 01:22:33;;;;;;;2.70;2.50;;;14.90;99.90;;;;;;5088222;28;20209;-74
2022/06/06 01:25:35;;;;;;;4.47;2.60;;;14.80;99.90;;;;;;5086044;28;20173;-74
2022/06/06 01:28:06;;;;;;;2.47;2.38;;;14.80;99.90;;;;;;5085293;28;20210;-75
2022/06/06 01:30:41;;;;;;;2.80;2.60;;;14.80;99.90;;;;;;5089150;28;20294;-74
2022/06/06 01:33:12;;;;;;;2.42;2.33;;;14.80;99.90;;;;;;5085277;28;20265;-73
2022/06/06 01:35:41;;;;;;;2.65;2.55;;;14.80;99.90;;;;;;5088657;28;20183;-74
2022/06/06 01:38:08;;;;;;;3.45;2.50;;;14.70;99.90;;;;;;5089148;28;20178;-74
2022/06/06 01:40:43;;;;;;;2.70;2.50;;;14.80;99.90;;;;;;5088453;28;20210;-74
2022/06/06 01:43:17;;;;;;;2.75;2.55;;;14.90;99.90;;;;;;5090093;28;20664;-74
2022/06/06 01:45:48;;;;;;;2.53;2.42;;;14.90;99.90;;;;;;5090377;28;20217;-73
2022/06/06 01:48:21;;;;;;;3.03;2.50;;;14.80;99.90;;;;;;5088543;28;20620;-74
2022/06/06 01:50:48;;;;;;;2.60;2.33;;;14.70;99.90;;;;;;5090704;28;20244;-73
2022/06/06 01:53:17;;;;;;;2.70;2.45;;;14.60;99.90;;;;;;5086751;28;20445;-73
2022/06/06 01:55:45;;;;;;;2.80;2.60;;;14.60;99.90;;;;;;5087174;28;20174;-73
2022/06/06 01:58:18;;;;;;;4.22;2.38;;;14.60;99.90;;;;;;5084484;28;20183;-73
2022/06/06 02:00:44;;;;;;;7.82;2.60;;;14.60;99.90;;;;;;5091542;28;20202;-74
2022/06/06 02:03:10;;;;;;;2.90;2.70;;;14.50;99.90;;;;;;5089091;28;20194;-74
2022/06/06 02:05:36;;;;;;;3.28;3.08;;;14.40;99.90;;;;;;5086468;28;20184;-74
2022/06/06 02:08:02;;;;;;;2.63;2.42;;;14.40;99.90;;;;;;5082370;28;20214;-73
2022/06/06 02:10:27;;;;;;;2.38;2.28;;;14.40;99.90;;;;;;5086625;28;20226;-74
2022/06/06 02:12:53;;;;;;;2.80;2.55;;;14.40;99.90;;;;;;5076960;28;20281;-74
2022/06/06 02:15:22;;;;;;;2.60;2.40;;;14.30;99.90;;;;;;5076364;28;20266;-74
2022/06/06 02:17:48;;;;;;;3.22;2.60;;;14.30;99.90;;;;;;5079095;28;20855;-74
2022/06/06 02:20:17;;;;;;;4.15;2.85;;;14.30;99.90;;;;;;5082557;28;20209;-75
2022/06/06 02:22:43;;;;;;;3.00;2.80;;;14.20;99.90;;;;;;5080403;28;20171;-78
2022/06/06 02:25:10;;;;;;;2.60;2.50;;;14.20;99.90;;;;;;5078227;28;20183;-72
2022/06/06 02:27:37;;;;;;;2.70;2.47;;;14.20;99.90;;;;;;5079605;28;20222;-72
2022/06/06 02:30:08;;;;;;;2.60;2.50;;;14.20;99.90;;;;;;5085490;28;20210;-75
2022/06/06 02:32:34;;;;;;;2.63;2.40;;;14.10;99.90;;;;;;5083777;28;20634;-72
2022/06/06 02:34:59;;;;;;;3.13;2.92;;;14.10;99.90;;;;;;5096968;28;20183;-72
2022/06/06 02:37:25;;;;;;;3.00;2.80;;;14.10;99.90;;;;;;5097618;28;20186;-72
2022/06/06 02:39:50;;;;;;;3.70;2.70;;;14.00;99.90;;;;;;5095672;28;20625;-72
2022/06/06 02:42:16;;;;;;;3.03;2.70;;;14.00;99.90;;;;;;5081337;28;20179;-73
2022/06/06 02:44:42;;;;;;;5.53;3.15;;;14.00;99.90;;;;;;5092827;28;20218;-72
2022/06/06 02:47:08;;;;;;;3.80;2.95;;;13.90;99.90;;;;;;5091546;28;20748;-72
2022/06/06 02:49:34;;;;;;;2.42;2.30;;;14.10;99.90;;;;;;5096170;28;20174;-73
2022/06/06 02:52:04;;;;;;;3.92;2.83;;;14.10;99.90;;;;;;5085066;28;20175;-74
2022/06/06 02:54:31;;;;;;;3.25;3.05;;;14.10;99.90;;;;;;5089348;28;20179;-73
2022/06/06 02:56:59;;;;;;;4.40;3.03;;;14.10;99.90;;;;;;5096779;28;20189;-73
2022/06/06 02:59:26;;;;;;;3.47;3.08;;;14.10;99.90;;;;;;5091033;28;20174;-73
2022/06/06 03:01:52;;;;;;;3.70;2.83;;;14.10;99.90;;;;;;5093926;28;21047;-73
2022/06/06 03:04:19;;;;;;;4.18;3.60;;;14.00;99.90;;;;;;5096576;28;20182;-73
2022/06/06 03:07:22;;;;;;;3.95;3.40;;;14.00;99.90;;;;;;5084520;28;20208;-73
2022/06/06 03:10:11;;;;;;;3.53;3.25;;;14.00;99.90;;;;;;5093419;28;20733;-73
2022/06/06 03:12:42;;;;;;;3.97;3.22;;;14.00;99.90;;;;;;5087875;28;20193;-76
2022/06/06 03:15:27;;;;;;;3.70;3.40;;;14.00;99.90;;;;;;5102600;28;20170;-74
2022/06/06 03:21:27;;;;;;;3.83;3.47;;;13.90;99.90;;;;;;5092883;28;20678;-75
2022/06/06 03:23:52;;;;;;;6.13;3.58;;;13.80;99.90;;;;;;5100495;28;20214;-75
2022/06/06 03:26:18;;;;;;;4.22;3.92;;;13.80;99.90;;;;;;5095106;28;20288;-75
2022/06/06 03:29:11;;;;;;;3.83;3.63;;;13.80;99.90;;;;;;5089085;28;20186;-75
2022/06/06 03:32:08;;;;;;;3.35;3.15;;;13.80;99.90;;;;;;5088339;28;20199;-75
2022/06/06 03:35:01;;;;;;;3.92;3.53;;;13.90;99.90;;;;;;5095630;28;20665;-75
2022/06/06 03:37:26;;;;;;;3.42;3.10;;;13.90;99.90;;;;;;5098240;28;20200;-75
2022/06/06 03:40:02;;;;;;;4.60;4.03;;;13.90;99.90;;;;;;5091786;28;20538;-75
2022/06/06 03:42:55;;;;;;;5.10;4.13;;;14.00;99.90;;;;;;5098188;28;20182;-75
2022/06/06 03:45:35;;;;;;;7.05;3.95;;;14.00;99.90;;;;;;5095382;28;20239;-75
2022/06/06 03:48:31;;;;;;;4.00;3.63;;;13.90;99.90;;;;;;5094794;28;20213;-75
2022/06/06 03:51:10;;;;;;;3.88;3.58;;;13.90;99.90;;;;;;5092723;28;20187;-75
2022/06/06 03:53:57;;;;;;;5.00;3.90;;;13.90;99.90;;;;;;5092784;28;20185;-74
2022/06/06 03:56:32;;;;;;;5.22;4.32;;;13.90;99.90;;;;;;5094701;28;20257;-75
2022/06/06 03:58:58;;;;;;;4.20;3.53;;;14.00;99.90;;;;;;5107049;28;20613;-75
2022/06/06 04:01:25;;;;;;;4.15;3.83;;;14.00;99.90;;;;;;5096819;28;20202;-74
2022/06/06 04:03:53;;;;;;;4.38;4.05;;;14.10;99.90;;;;;;5099982;28;20182;-73
2022/06/06 04:06:19;;;;;;;5.80;3.80;;;14.20;99.90;;;;;;5096953;28;20210;-72
2022/06/06 04:08:45;;;;;;;4.43;4.07;;;14.30;99.90;;;;;;5089728;28;20178;-73
2022/06/06 04:11:26;;;;;;;4.70;4.25;;;14.30;99.90;;;;;;5094219;28;20598;-73
2022/06/06 04:14:00;;;;;;;4.13;3.72;;;14.30;99.90;;;;;;5083460;28;20186;-73
2022/06/06 04:16:44;;;;;;;4.60;4.20;;;14.30;99.90;;;;;;5092108;28;20182;-73
2022/06/06 04:19:18;;;;;;;4.40;4.10;;;14.40;99.90;;;;;;5088881;28;20178;-73
2022/06/06 04:22:20;;;;;;;6.38;4.70;;;14.50;99.90;;;;;;5090285;28;20247;-73
2022/06/06 04:25:02;;;;;;;6.38;4.38;;;14.60;99.90;;;;;;5090103;28;20261;-73
2022/06/06 04:27:37;;;;;;;7.88;4.38;;;14.70;99.90;;;;;;5079264;28;20756;-73
2022/06/06 04:30:09;;;;;;;5.55;5.05;;;14.70;99.90;;;;;;5088031;28;20340;-73
2022/06/06 04:32:46;;;;;;;4.90;4.40;;;14.70;99.90;;;;;;5089631;28;20708;-73
2022/06/06 04:35:37;;;;;;;6.05;4.75;;;14.80;99.90;;;;;;5088849;28;20202;-74
2022/06/06 04:38:14;;;;;;;6.00;4.80;;;14.90;99.90;;;;;;5094497;28;20210;-74
2022/06/06 04:40:49;;;;;;;5.13;4.55;;;14.90;99.90;;;;;;5091524;28;20586;-72
2022/06/06 04:43:43;;;;;;;8.20;5.15;;;15.00;99.90;;;;;;5085432;28;20185;-73
2022/06/06 04:46:15;;;;;;;4.90;4.50;;;15.00;99.90;;;;;;5089546;28;20641;-72
2022/06/06 04:48:43;;;;;;;7.80;4.53;;;15.10;99.90;;;;;;5105336;28;20183;-78
2022/06/06 04:51:11;;;;;;;4.38;4.07;;;15.20;99.90;;;;;;5098546;28;20213;-76
2022/06/06 04:53:41;;;;;;;9.18;5.78;;;15.20;99.90;;;;;;5096894;28;20197;-77
2022/06/06 04:56:08;;;;;;;5.22;4.70;;;15.30;99.90;;;;;;5085486;28;20257;-78
2022/06/06 04:58:35;;;;;;;4.70;4.30;;;15.30;99.90;;;;;;5090415;28;20189;-76
2022/06/06 05:01:02;;;;;;;5.53;5.03;;;15.40;99.90;;;;;;5094170;28;20243;-77
2022/06/06 05:03:28;;;;;;;7.78;5.28;;;15.50;99.90;;;;;;5088484;28;20219;-77
2022/06/06 05:06:05;;;;;;;7.78;5.18;;;15.50;99.90;;;;;;5101506;28;20240;-77
2022/06/06 05:08:31;;;;;;;5.13;4.55;;;15.70;99.90;;;;;;5097785;28;20291;-77
2022/06/06 05:11:06;;;;;;;7.68;4.32;;;15.80;99.90;;;;;;5093741;28;20349;-78
2022/06/06 05:13:56;;;;;;;8.15;4.63;;;15.90;99.90;;;;;;5086060;28;20202;-74
2022/06/06 05:16:25;;;;;;;5.18;4.72;;;16.00;99.90;;;;;;5079272;28;20270;-74
2022/06/06 05:19:05;;;;;;;5.40;4.85;;;16.20;99.90;;;;;;5092395;28;20207;-75
2022/06/06 05:21:39;;;;;;;4.43;4.00;;;16.20;99.90;;;;;;5091600;28;20198;-75
2022/06/06 05:24:11;;;;;;;4.82;4.43;;;16.00;99.90;;;;;;5105954;28;20173;-73
2022/06/06 05:27:01;;;;;;;4.82;4.32;;;16.00;99.90;;;;;;5086953;28;20202;-74
2022/06/06 05:29:42;;;;;;;5.00;4.57;;;16.00;99.90;;;;;;5089439;28;20264;-74
2022/06/06 05:32:19;;;;;;;5.43;4.80;;;16.10;99.90;;;;;;5080847;28;20179;-74
2022/06/06 05:34:51;;;;;;;4.85;4.45;;;16.20;99.90;;;;;;5086388;28;20346;-74
2022/06/06 05:37:42;;;;;;;5.13;4.70;;;16.40;99.90;;;;;;5098156;28;20173;-74
2022/06/06 05:40:37;;;;;;;5.07;4.68;;;16.50;99.90;;;;;;5090974;28;20210;-75
2022/06/06 05:43:12;;;;;;;5.13;4.68;;;16.60;99.90;;;;;;5095580;28;20179;-75
2022/06/06 05:45:57;;;;;;;5.22;4.72;;;16.60;99.90;;;;;;5097742;28;20256;-74
2022/06/06 05:48:46;;;;;;;5.22;4.72;;;16.70;99.90;;;;;;5095584;28;20209;-76
2022/06/06 05:51:46;;;;;;;5.18;4.70;;;16.80;99.90;;;;;;5090836;28;20258;-76
2022/06/06 05:54:21;;;;;;;4.43;4.13;;;16.90;99.90;;;;;;5090144;28;20246;-75
2022/06/06 05:57:15;;;;;;;5.85;4.10;;;17.00;99.90;;;;;;5095346;28;20173;-76
2022/06/06 05:59:53;;;;;;;5.30;4.57;;;17.10;99.90;;;;;;5092521;28;20185;-74
2022/06/06 06:02:43;;;;;;;5.25;4.82;;;17.20;99.90;;;;;;5084242;28;20190;-76
2022/06/06 06:05:16;;;;;;;4.90;4.47;;;17.30;99.90;;;;;;5090496;28;20211;-75
2022/06/06 06:08:17;;;;;;;4.70;4.22;;;17.10;99.90;;;;;;5107850;28;20201;-74
2022/06/06 06:10:59;;;;;;;5.18;4.78;;;17.10;99.90;;;;;;5030584;28;20221;-75
2022/06/06 06:13:46;;;;;;;4.18;3.88;;;17.10;99.90;;;;;;5093162;28;20455;-74
2022/06/06 06:16:15;;;;;;;4.60;4.28;;;17.10;99.90;;;;;;5093193;28;20198;-74
2022/06/06 06:18:47;;;;;;;4.53;4.13;;;17.20;99.90;;;;;;5103858;28;20177;-74
2022/06/06 06:21:24;;;;;;;5.20;4.80;;;17.20;99.90;;;;;;5090072;28;20534;-76
2022/06/06 06:24:03;;;;;;;4.70;4.15;;;17.40;99.90;;;;;;5092096;28;20174;-75
2022/06/06 06:26:30;;;;;;;4.72;3.83;;;17.40;99.90;;;;;;5089762;28;20217;-74
2022/06/06 06:29:01;;;;;;;4.68;4.18;;;17.40;99.90;;;;;;5087210;28;20186;-76
2022/06/06 06:32:05;;;;;;;4.78;4.47;;;17.50;99.90;;;;;;5087682;28;20199;-76
2022/06/06 06:35:07;;;;;;;4.50;4.15;;;17.60;99.90;;;;;;5090051;28;20175;-76
2022/06/06 06:37:52;;;;;;;3.80;3.50;;;17.80;99.90;;;;;;5088694;28;20212;-75
2022/06/06 06:40:48;;;;;;;6.28;3.90;;;17.80;99.90;;;;;;5089996;28;20246;-74
2022/06/06 06:43:49;;;;;;;4.22;3.92;;;17.80;99.90;;;;;;5088803;28;20320;-73
2022/06/06 06:46:20;;;;;;;4.53;3.30;;;18.00;99.90;;;;;;5088530;28;20202;-74
2022/06/06 06:48:51;;;;;;;4.13;3.85;;;18.10;99.90;;;;;;5091604;28;20170;-74
2022/06/06 06:51:49;;;;;;;5.35;4.43;;;18.10;99.90;;;;;;5089493;28;20241;-74
2022/06/06 06:54:37;;;;;;;3.78;3.55;;;18.30;99.90;;;;;;5091631;28;20274;-74
2022/06/06 06:57:29;;;;;;;3.28;3.05;;;18.40;99.90;;;;;;5089917;28;20185;-74
2022/06/06 07:00:01;;;;;;;3.05;2.85;;;18.50;99.90;;;;;;5089964;28;20255;-74
2022/06/06 07:09:19;;;;;;;4.43;4.10;;;18.80;99.90;;;;;;5091591;28;20244;-72
2022/06/06 07:11:54;;;;;;;3.83;3.53;;;18.70;99.90;;;;;;5090204;28;20197;-74
2022/06/06 07:14:45;;;;;;;3.67;3.47;;;19.00;99.90;;;;;;5082174;28;20185;-74
2022/06/06 07:17:11;;;;;;;4.32;3.92;;;19.20;99.90;;;;;;5089050;28;20186;-78
2022/06/06 07:19:46;;;;;;;3.28;3.17;;;19.20;99.90;;;;;;5084597;28;20193;-74
2022/06/06 07:22:16;;;;;;;3.38;3.10;;;19.40;99.90;;;;;;5090637;28;20217;-74
2022/06/06 07:24:43;;;;;;;3.92;3.30;;;19.50;99.90;;;;;;5084882;28;20167;-74
2022/06/06 07:27:10;;;;;;;3.70;3.35;;;19.60;99.90;;;;;;5082248;28;20293;-74
2022/06/06 07:29:35;;;;;;;3.45;3.25;;;19.70;99.90;;;;;;5085647;28;20260;-75
2022/06/06 07:32:46;;;;;;;3.60;3.40;;;19.80;99.90;;;;;;5086690;28;20170;-75
2022/06/06 07:35:21;;;;;;;4.85;3.70;;;19.80;99.90;;;;;;5062957;28;20253;-74
2022/06/06 07:38:16;;;;;;;4.95;3.33;;;19.90;99.90;;;;;;5078159;28;20178;-74
2022/06/06 07:41:12;;;;;;;4.40;4.10;;;20.00;99.90;;;;;;5068989;28;20704;-74
2022/06/06 07:43:53;;;;;;;3.28;2.97;;;20.20;99.90;;;;;;5087307;28;20693;-74
2022/06/06 07:46:39;;;;;;;2.92;2.72;;;20.20;99.90;;;;;;5083544;28;20191;-74
2022/06/06 07:49:18;;;;;;;3.08;2.88;;;20.20;99.90;;;;;;5088624;28;20666;-74
2022/06/06 07:52:04;;;;;;;3.15;2.90;;;20.40;99.90;;;;;;5087331;28;20202;-74
2022/06/06 07:54:58;;;;;;;3.97;2.63;;;20.50;99.90;;;;;;5083725;28;20193;-74
2022/06/06 07:57:38;;;;;;;2.83;2.47;;;20.70;99.90;;;;;;5089369;28;20182;-74
2022/06/06 08:00:20;;;;;;;3.13;2.50;;;20.80;99.90;;;;;;5085476;28;20203;-76
2022/06/06 08:03:21;;;;;;;2.75;2.53;;;21.00;99.90;;;;;;5104301;27;20761;-77
2022/06/06 08:05:52;;;;;;;2.47;2.33;;;21.50;99.90;;;;;;5017655;28;20225;-78
2022/06/06 08:08:25;;;;;;;2.70;2.60;;;22.10;99.90;;;;;;5039087;28;20261;-78
2022/06/06 08:10:50;;;;;;;2.30;2.10;;;22.40;99.90;;;;;;5086792;28;20202;-78
2022/06/06 08:13:52;;;;;;;2.47;2.35;;;22.50;99.90;;;;;;5084180;28;20183;-79
2022/06/06 08:16:38;;;;;;;2.38;2.10;;;22.50;99.90;;;;;;5086814;28;20189;-77
2022/06/06 08:19:25;;;;;;;2.72;2.55;;;22.80;99.90;;;;;;5091869;28;20181;-77
2022/06/06 08:21:51;;;;;;;3.78;2.42;;;23.40;99.90;;;;;;5086495;28;20299;-78
2022/06/06 08:24:20;;;;;;;2.78;2.60;;;24.10;99.90;;;;;;5094541;28;20645;-76
2022/06/06 08:26:48;;;;;;;2.38;2.25;;;24.70;99.90;;;;;;5096620;28;20220;-76
2022/06/06 08:29:15;;;;;;;2.58;2.38;;;25.30;99.90;;;;;;5089538;28;20530;-76
2022/06/06 08:31:41;;;;;;;2.60;2.40;;;25.40;99.90;;;;;;5081270;28;20199;-77
2022/06/06 08:34:07;;;;;;;2.72;2.50;;;25.60;99.90;;;;;;5092765;28;20224;-74
2022/06/06 08:36:52;;;;;;;2.65;2.42;;;25.60;99.90;;;;;;5082617;28;20175;-75
2022/06/06 08:39:37;;;;;;;2.25;2.15;;;25.70;99.90;;;;;;5081437;28;20189;-74
2022/06/06 08:42:31;;;;;;;2.28;2.17;;;25.50;99.90;;;;;;5081352;28;20174;-74
2022/06/06 08:45:11;;;;;;;1.98;1.88;;;25.40;99.90;;;;;;5085810;28;20188;-74
2022/06/06 08:48:06;;;;;;;3.88;2.30;;;25.30;99.90;;;;;;5095655;28;20546;-77
2022/06/06 08:50:59;;;;;;;2.20;2.10;;;25.00;99.90;;;;;;5038332;28;20256;-74
2022/06/06 08:53:43;;;;;;;3.65;2.25;;;25.20;99.90;;;;;;5078975;28;20518;-75
2022/06/06 08:56:53;;;;;;;2.38;2.20;;;25.40;99.90;;;;;;5077058;28;20179;-75
2022/06/06 08:59:48;;;;;;;2.58;2.33;;;25.40;99.90;;;;;;5049605;28;20184;-76
2022/06/06 09:02:19;;;;;;;2.83;2.70;;;25.40;99.90;;;;;;5037575;28;20192;-76
2022/06/06 09:05:03;;;;;;;2.58;2.47;;;25.10;99.90;;;;;;5069523;28;20195;-75
2022/06/06 09:07:44;;;;;;;2.67;2.47;;;24.80;99.90;;;;;;5081019;28;20198;-75
2022/06/06 09:10:41;;;;;;;2.60;2.50;;;24.70;99.90;;;;;;5076317;28;20206;-77
2022/06/06 09:13:40;;;;;;;2.72;2.55;;;25.00;99.90;;;;;;5077879;28;20171;-77
2022/06/06 09:16:11;;;;;;;2.63;2.42;;;25.10;99.90;;;;;;5085023;28;20185;-77
2022/06/06 09:18:43;;;;;;;2.42;2.33;;;25.80;99.90;;;;;;5083635;28;20179;-77
2022/06/06 09:21:46;;;;;;;3.80;2.92;;;25.70;99.90;;;;;;5080846;28;20195;-77
2022/06/06 09:24:49;;;;;;;3.28;2.47;;;25.40;99.90;;;;;;5088033;28;20170;-77
2022/06/06 09:27:51;;;;;;;2.55;2.35;;;25.00;99.90;;;;;;5080193;28;20676;-77
2022/06/06 09:30:22;;;;;;;2.88;2.70;;;24.80;99.90;;;;;;5094402;28;20284;-77
2022/06/06 09:33:20;;;;;;;2.80;2.60;;;24.90;99.90;;;;;;5097672;28;20178;-76
2022/06/06 09:35:54;;;;;;;2.50;2.40;;;25.50;99.90;;;;;;5072539;28;20190;-76
2022/06/06 09:38:48;;;;;;;2.50;2.40;;;26.70;99.90;;;;;;5089538;28;20256;-76
2022/06/06 09:41:33;;;;;;;2.88;2.67;;;27.80;99.90;;;;;;5092792;28;20203;-76
2022/06/06 09:44:23;;;;;;;3.17;2.97;;;28.20;99.90;;;;;;5089322;28;20179;-77
2022/06/06 09:47:25;;;;;;;2.47;2.30;;;29.40;99.90;;;;;;5090130;28;20251;-76
2022/06/06 09:49:54;;;;;;;2.50;2.30;;;29.50;99.90;;;;;;5088091;28;20236;-77
2022/06/06 09:52:22;;;;;;;2.33;2.03;;;29.50;98.40;;;;;;5081074;28;20179;-77
2022/06/06 10:01:21;;;;;;;2.22;2.13;;;30.50;93.10;;;;;;5082822;28;20268;-74
2022/06/06 10:04:26;;;;;;;8.07;7.47;;;31.10;91.30;;;;;;5082125;28;20212;-74
2022/06/06 10:07:21;;;;;;;2.17;2.08;;;30.10;91.90;;;;;;5084721;28;20210;-74
2022/06/06 10:10:04;;;;;;;2.17;2.08;;;29.00;93.80;;;;;;5077694;28;20191;-74
2022/06/06 10:12:38;;;;;;;2.30;2.20;;;27.80;97.40;;;;;;5085440;28;20183;-74
2022/06/06 10:15:31;;;;;;;3.22;2.30;;;27.20;94.70;;;;;;5085917;28;20178;-74
2022/06/06 10:18:09;;;;;;;2.17;2.08;;;26.60;98.60;;;;;;5087672;28;20665;-73
2022/06/06 10:21:01;;;;;;;2.30;2.20;;;26.30;99.80;;;;;;5084751;28;20277;-73
2022/06/06 10:24:01;;;;;;;2.38;2.25;;;25.90;99.90;;;;;;5087377;28;20190;-73
2022/06/06 10:26:47;;;;;;;2.53;2.33;;;25.40;99.90;;;;;;5087958;28;20182;-73
2022/06/06 10:32:40;;;;;;;2.00;1.90;;;24.80;99.90;;;;;;5086554;28;20194;-74
2022/06/06 10:35:14;;;;;;;2.47;2.28;;;24.80;99.90;;;;;;5080153;28;20206;-74
2022/06/06 10:37:59;;;;;;;3.45;2.20;;;24.80;99.90;;;;;;5086887;28;20516;-77
2022/06/06 10:40:30;;;;;;;2.85;2.08;;;24.80;99.90;;;;;;5084268;28;20206;-77
2022/06/06 10:43:07;;;;;;;2.05;1.95;;;24.70;99.90;;;;;;5084922;28;20179;-77
2022/06/06 10:45:58;;;;;;;2.22;2.10;;;26.30;99.90;;;;;;5089873;28;20669;-76
2022/06/06 10:48:41;;;;;;;3.35;2.30;;;29.30;96.10;;;;;;5086796;28;20252;-74
2022/06/06 10:54:11;;;;;;;1.92;1.83;;;34.90;70.00;;;;;;5087141;28;20200;-74
2022/06/06 10:57:01;;;;;;;2.05;1.95;;;34.50;64.40;;;;;;5090968;28;20182;-72
2022/06/06 10:59:44;;;;;;;2.20;2.10;;;32.60;67.90;;;;;;5090488;28;20186;-72
2022/06/06 11:02:30;;;;;;;1.98;1.83;;;34.00;67.30;;;;;;5090289;28;20256;-72
2022/06/06 11:05:25;;;;;;;2.28;2.13;;;35.90;64.90;;;;;;5090805;28;20231;-71
2022/06/06 11:08:13;;;;;;;2.45;1.90;;;36.50;60.50;;;;;;5087319;28;20227;-72
2022/06/06 11:11:00;;;;;;;2.33;2.15;;;37.50;56.50;;;;;;5087891;28;20210;-71
2022/06/06 11:13:35;;;;;;;2.40;2.20;;;38.20;53.00;;;;;;5090517;28;20181;-73
2022/06/06 11:16:21;;;;;;;2.45;2.28;;;37.70;55.20;;;;;;5090609;28;20177;-72
2022/06/06 11:19:24;;;;;;;2.75;2.10;;;37.80;52.70;;;;;;5060066;28;20643;-72
2022/06/06 11:22:11;;;;;;;1.85;1.80;;;38.00;53.00;;;;;;5091080;28;20291;-72
2022/06/06 11:24:47;;;;;;;2.65;1.80;;;38.50;53.60;;;;;;5104036;28;20235;-73
2022/06/06 11:27:57;;;;;;;2.65;2.30;;;39.50;52.00;;;;;;5079514;28;20210;-72
2022/06/06 11:30:33;;;;;;;2.33;2.13;;;39.40;51.60;;;;;;5090129;28;20210;-72
2022/06/06 11:33:13;;;;;;;2.20;2.10;;;39.20;52.30;;;;;;5092411;28;20201;-72
2022/06/06 11:35:58;;;;;;;2.20;2.00;;;37.80;53.10;;;;;;5091320;28;20593;-74
2022/06/06 11:38:38;;;;;;;2.38;2.20;;;36.50;55.50;;;;;;5089316;28;20178;-71
2022/06/06 11:41:19;;;;;;;2.58;2.38;;;34.80;57.80;;;;;;5090827;28;20628;-72
2022/06/06 11:43:47;;;;;;;2.25;2.15;;;33.20;60.50;;;;;;5089281;28;20530;-71
2022/06/06 11:46:50;;;;;;;2.95;2.75;;;32.20;64.30;;;;;;5091978;28;20602;-71
2022/06/06 11:49:43;;;;;;;2.33;2.22;;;31.60;64.70;;;;;;5093518;28;20182;-71
2022/06/06 11:52:34;;;;;;;3.03;2.50;;;31.00;65.90;;;;;;5088503;28;20183;-70
2022/06/06 11:55:26;;;;;;;2.90;2.78;;;30.90;71.00;;;;;;5095164;28;20182;-73
2022/06/06 11:58:22;;;;;;;6.03;2.58;;;30.70;67.60;;;;;;5098214;28;20174;-71
2022/06/06 12:01:06;;;;;;;2.90;2.70;;;29.90;73.80;;;;;;5089273;28;20214;-71
2022/06/06 12:03:56;;;;;;;3.83;2.22;;;29.30;76.30;;;;;;5086124;28;20186;-70
2022/06/06 12:06:33;;;;;;;3.78;2.90;;;28.80;80.10;;;;;;5091076;28;20676;-71
2022/06/06 12:09:02;;;;;;;2.95;2.75;;;28.60;82.80;;;;;;5087768;28;20631;-73
2022/06/06 12:11:40;;;;;;;2.72;2.53;;;29.90;78.90;;;;;;5094462;28;20193;-72
2022/06/06 12:14:21;;;;;;;3.70;2.20;;;31.80;72.80;;;;;;5088322;28;20174;-73
2022/06/06 12:16:56;;;;;;;2.13;2.03;;;33.70;71.80;;;;;;5096777;28;20189;-72
2022/06/06 12:19:36;;;;;;;2.50;2.30;;;34.40;63.20;;;;;;5081814;28;20269;-72
2022/06/06 12:22:02;;;;;;;2.28;2.17;;;35.30;62.80;;;;;;5080284;28;20174;-72
2022/06/06 12:25:14;;;;;;;1.98;1.88;;;36.10;61.00;;;;;;5081972;28;20231;-71
2022/06/06 12:28:14;;;;;;;2.28;2.00;;;36.50;57.80;;;;;;5085065;28;20593;-71
2022/06/06 12:30:54;;;;;;;1.92;1.83;;;37.40;55.60;;;;;;5090967;28;20202;-73
2022/06/06 12:33:33;;;;;;;2.30;1.90;;;38.20;55.90;;;;;;5096577;28;20230;-71
2022/06/06 12:36:33;;;;;;;4.53;1.90;;;38.00;52.20;;;;;;5094570;28;20182;-72
2022/06/06 12:39:13;;;;;;;2.53;2.33;;;37.00;53.10;;;;;;5092863;28;20189;-71
2022/06/06 12:41:48;;;;;;;2.28;2.00;;;36.50;55.50;;;;;;5088729;28;20603;-72
2022/06/06 12:44:40;;;;;;;1.75;1.65;;;35.50;56.30;;;;;;5094441;28;20226;-72
2022/06/06 12:47:44;;;;;;;2.35;2.10;;;35.10;57.30;;;;;;5095086;28;20204;-73
2022/06/06 12:50:44;;;;;;;2.20;2.00;;;35.20;56.80;;;;;;5084703;28;20210;-73
2022/06/06 12:53:38;;;;;;;1.92;1.80;;;39.50;51.60;;;;;;5060525;28;20185;-72
2022/06/06 12:56:23;;;;;;;2.55;1.55;;;42.50;47.20;;;;;;5091823;28;20596;-72
2022/06/06 12:59:07;;;;;;;1.70;1.60;;;44.90;42.70;;;;;;5084589;28;20175;-72
2022/06/06 13:02:21;;;;;;;3.85;1.75;;;46.70;40.80;;;;;;5081466;28;20750;-72
2022/06/06 13:05:24;;;;;;;1.98;1.52;;;49.00;38.30;;;;;;5083966;28;20169;-73
2022/06/06 13:08:27;;;;;;;1.50;1.40;;;51.50;35.20;;;;;;5085163;28;20296;-72
2022/06/06 13:11:15;;;;;;;1.70;1.38;;;53.70;31.00;;;;;;5078521;28;20205;-73
2022/06/06 13:14:16;;;;;;;1.58;1.25;;;50.90;32.50;;;;;;5081716;28;20174;-73
2022/06/06 13:16:54;;;;;;;1.35;1.20;;;46.80;35.20;;;;;;5090437;28;20177;-72
2022/06/06 13:19:41;;;;;;;1.52;1.40;;;45.00;37.50;;;;;;5078096;28;20652;-72
2022/06/06 13:22:33;;;;;;;1.58;1.48;;;46.50;35.70;;;;;;5083991;28;20216;-71
2022/06/06 13:25:08;;;;;;;3.72;1.58;;;45.90;35.40;;;;;;5087434;28;20181;-71
2022/06/06 13:27:52;;;;;;;1.50;1.40;;;43.40;37.70;;;;;;5082011;28;20252;-71
2022/06/06 13:30:24;;;;;;;1.60;1.50;;;43.80;39.10;;;;;;5105875;27;20688;-72
2022/06/06 13:32:56;;;;;;;3.83;1.80;;;47.10;36.50;;;;;;5094530;28;20185;-73
2022/06/06 13:35:51;;;;;;;5.22;2.50;;;50.30;34.70;;;;;;5087064;28;20630;-72
2022/06/06 13:38:39;;;;;;;1.58;1.42;;;51.30;33.20;;;;;;5093539;28;20231;-73
2022/06/06 13:41:10;;;;;;;2.70;1.30;;;50.40;32.60;;;;;;5081175;28;20194;-72
2022/06/06 13:43:52;;;;;;;1.55;1.45;;;49.40;32.90;;;;;;5083204;28;20185;-72
2022/06/06 13:46:38;;;;;;;1.50;1.40;;;48.50;33.70;;;;;;5081785;28;20194;-72
2022/06/06 13:49:38;;;;;;;1.30;1.20;;;45.80;36.00;;;;;;5082687;28;22221;-71
2022/06/06 13:52:41;;;;;;;1.50;1.40;;;43.00;37.10;;;;;;5081096;28;20181;-72
2022/06/06 13:55:29;;;;;;;1.42;1.42;;;39.30;42.10;;;;;;5081996;28;20212;-72
2022/06/06 13:58:17;;;;;;;1.67;1.58;;;36.10;46.30;;;;;;5087875;28;20171;-72
2022/06/06 14:01:15;;;;;;;2.25;1.83;;;33.90;49.90;;;;;;5089848;28;20227;-72
2022/06/06 14:03:59;;;;;;;1.80;1.50;;;32.50;52.40;;;;;;5080103;28;20177;-71
2022/06/06 14:06:49;;;;;;;2.22;1.77;;;32.40;53.30;;;;;;5081688;28;20205;-71
2022/06/06 14:09:16;;;;;;;1.90;1.80;;;33.90;52.60;;;;;;5075584;28;20174;-72
2022/06/06 14:12:20;;;;;;;1.73;1.65;;;37.50;49.80;;;;;;5076390;28;20685;-75
2022/06/06 14:14:49;;;;;;;1.90;1.80;;;43.10;42.30;;;;;;5092181;28;20248;-74
2022/06/06 14:17:24;;;;;;;2.45;1.77;;;47.60;38.60;;;;;;5092995;28;20636;-74
2022/06/06 14:20:17;;;;;;;1.55;1.45;;;49.90;35.40;;;;;;5100754;28;20193;-74
2022/06/06 14:22:43;;;;;;;1.10;1.10;;;52.90;32.00;;;;;;5105708;28;20169;-74